createdAt,value
2023-04-11T16:59:27.590Z,100598.84
2023-04-11T17:04:33.239Z,100598.19
2023-04-11T17:09:39.082Z,100597.56
2023-04-11T17:14:47.805Z,100595.59
2023-04-11T17:19:53.307Z,100592.16
2023-04-11T17:24:58.724Z,100578.28
2023-04-11T17:30:08.300Z,100575.47
2023-04-11T17:35:14.345Z,100570.19
2023-04-11T17:40:19.896Z,100568.25
2023-04-11T17:45:28.313Z,100558.75
2023-04-11T17:50:33.550Z,100552.03
2023-04-11T17:55:39.063Z,100542.03
2023-04-11T18:00:55.659Z,100538.06
2023-04-11T18:06:01.687Z,100526.41
2023-04-11T18:11:07.256Z,100534.53
2023-04-11T18:16:16.290Z,100533.19
2023-04-11T18:21:22.442Z,100530.94
2023-04-11T18:26:27.765Z,100538.16
2023-04-11T18:31:36.388Z,100536.69
2023-04-11T18:36:41.650Z,100536.97
2023-04-11T18:41:47.549Z,100532.88
2023-04-11T18:46:57.644Z,100528.75
2023-04-11T18:52:04.906Z,100524.66
2023-04-11T18:57:12.014Z,100518.84
2023-04-11T19:02:21.926Z,100516.38
2023-04-11T19:07:27.621Z,100512.22
2023-04-11T19:12:33.564Z,100510.69
2023-04-11T19:17:41.512Z,100504.75
2023-04-11T19:22:46.911Z,100509.16
2023-04-11T19:27:52.183Z,100498.13
2023-04-11T19:33:01.345Z,100499.91
2023-04-11T19:38:07.039Z,100501.72
2023-04-11T19:43:12.302Z,100500.97
2023-04-11T19:48:20.101Z,100495.00
2023-04-11T19:53:25.344Z,100478.75
2023-04-11T19:58:30.702Z,100467.59
2023-04-11T20:03:38.779Z,100464.19
2023-04-11T20:08:44.139Z,100459.03
2023-04-11T20:13:49.543Z,100446.16
2023-04-11T20:18:57.393Z,100441.81
2023-04-11T20:24:02.661Z,100429.75
2023-04-11T20:29:08.027Z,100431.47
2023-04-11T20:34:15.783Z,100415.19
2023-04-11T20:39:21.177Z,100408.31
2023-04-11T20:44:27.154Z,100406.56
2023-04-11T20:49:35.471Z,100395.28
2023-04-11T20:54:41.194Z,100380.53
2023-04-11T20:59:46.730Z,100371.84
2023-04-11T21:04:55.464Z,100364.78
2023-04-11T21:10:01.786Z,100363.78
2023-04-11T21:15:08.777Z,100356.03
2023-04-11T21:20:20.730Z,100346.47
2023-04-11T21:25:26.705Z,100338.72
2023-04-11T21:30:32.473Z,100323.28
2023-04-11T21:35:40.331Z,100328.31
2023-04-11T21:40:45.942Z,100312.09
2023-04-11T21:45:51.182Z,100311.31
